Time;durP1;ratioP1;P1;durP2;ratioP2;P2;SDS_P1;SDS_P2;PMS_P1;PMS_P2;Temp;Humidity;BMP_temperature;BMP_pressure;BME280_temperature;BME280_humidity;BME280_pressure;Samples;Min_cycle;Max_cycle;Signal;HPM_P1;HPM_P2
2021/11/01 00:01:13;;;;;;;12.75;3.17;;;9.40;99.10;;;;;;5073662;28;20047;-71
2021/11/01 00:03:41;;;;;;;9.77;2.47;;;9.40;99.20;;;;;;5090572;28;20056;-70
2021/11/01 00:06:09;;;;;;;8.95;2.20;;;9.40;99.00;;;;;;5089500;28;20052;-70
2021/11/01 00:08:37;;;;;;;10.95;2.67;;;9.40;98.90;;;;;;5091685;28;20047;-70
2021/11/01 00:11:04;;;;;;;5.88;2.90;;;9.40;98.80;;;;;;5091862;28;20460;-70
2021/11/01 00:13:32;;;;;;;9.32;3.08;;;9.40;99.10;;;;;;5090662;28;20064;-70
2021/11/01 00:15:59;;;;;;;12.75;2.58;;;9.30;98.90;;;;;;5090162;28;20059;-70
2021/11/01 00:18:27;;;;;;;8.25;2.40;;;9.30;98.70;;;;;;5088159;28;20128;-70
2021/11/01 00:20:54;;;;;;;17.35;2.83;;;9.30;98.50;;;;;;5090547;28;20407;-71
2021/11/01 00:23:21;;;;;;;14.60;2.67;;;9.30;98.70;;;;;;5092233;28;20044;-71
2021/11/01 00:25:48;;;;;;;8.82;2.42;;;9.30;98.50;;;;;;5091240;28;20048;-71
2021/11/01 00:28:15;;;;;;;7.18;2.25;;;9.20;98.40;;;;;;5089408;28;20411;-71
2021/11/01 00:30:42;;;;;;;14.73;2.83;;;9.30;98.40;;;;;;5072805;28;20037;-71
2021/11/01 00:33:09;;;;;;;13.48;2.38;;;9.30;98.30;;;;;;5091726;28;20044;-71
2021/11/01 00:35:37;;;;;;;11.45;2.15;;;9.30;98.40;;;;;;5072007;28;20088;-71
2021/11/01 00:38:05;;;;;;;15.93;2.70;;;9.20;98.40;;;;;;5073397;28;20063;-71
2021/11/01 00:40:32;;;;;;;15.25;4.03;;;9.20;98.50;;;;;;5091046;28;20043;-71
2021/11/01 00:43:03;;;;;;;11.45;2.67;;;9.20;98.50;;;;;;5068317;28;20086;-72
2021/11/01 00:45:30;;;;;;;9.70;2.70;;;9.20;98.60;;;;;;5091178;28;20055;-71
2021/11/01 00:47:57;;;;;;;8.93;2.33;;;9.20;99.00;;;;;;5088785;28;20072;-71
2021/11/01 00:50:24;;;;;;;10.75;2.90;;;9.20;99.00;;;;;;5090722;28;20052;-72
2021/11/01 00:52:52;;;;;;;11.32;2.28;;;9.20;99.10;;;;;;5090634;28;20070;-71
2021/11/01 00:55:23;;;;;;;12.32;2.78;;;9.20;99.40;;;;;;5089953;28;20068;-70
2021/11/01 00:57:52;;;;;;;12.48;2.55;;;9.20;99.30;;;;;;5099200;28;20501;-71
2021/11/01 01:00:22;;;;;;;9.88;2.97;;;9.20;99.30;;;;;;5089729;28;20070;-70
2021/11/01 01:02:48;;;;;;;5.85;2.30;;;9.20;99.40;;;;;;5088105;28;20088;-70
2021/11/01 01:05:16;;;;;;;17.45;3.03;;;9.20;99.60;;;;;;5088750;28;20120;-71
2021/11/01 01:07:43;;;;;;;8.95;2.97;;;9.20;99.80;;;;;;5091027;28;20040;-71
2021/11/01 01:10:12;;;;;;;14.52;2.65;;;9.20;99.80;;;;;;5089998;28;21771;-71
2021/11/01 01:12:42;;;;;;;10.27;2.42;;;9.20;99.90;;;;;;5088608;28;20047;-71
2021/11/01 01:15:11;;;;;;;9.85;3.00;;;9.20;99.90;;;;;;5090262;28;20151;-70
2021/11/01 01:17:41;;;;;;;16.60;3.90;;;9.20;99.90;;;;;;5088884;28;20391;-71
2021/11/01 01:20:12;;;;;;;7.20;2.53;;;9.20;99.90;;;;;;5090128;28;20289;-70
2021/11/01 01:22:40;;;;;;;9.60;2.90;;;9.20;99.90;;;;;;5091607;28;20047;-71
2021/11/01 01:25:37;;;;;;;12.73;2.72;;;9.30;99.60;;;;;;5073614;28;20051;-71
2021/11/01 01:27:58;;;;;;;12.15;2.88;;;9.30;99.40;;;;;;5089267;28;20092;-71
2021/11/01 01:30:25;;;;;;;11.60;2.78;;;9.30;99.50;;;;;;5089072;28;20202;-70
2021/11/01 01:32:52;;;;;;;11.48;3.38;;;9.30;99.30;;;;;;5090588;28;20401;-72
2021/11/01 01:35:19;;;;;;;12.00;3.67;;;9.30;99.20;;;;;;5071281;28;20055;-70
2021/11/01 01:37:47;;;;;;;11.80;2.20;;;9.30;99.50;;;;;;5090251;28;20131;-70
2021/11/01 01:40:17;;;;;;;13.93;2.38;;;9.20;99.30;;;;;;5090015;28;20127;-70
2021/11/01 01:42:44;;;;;;;22.70;4.57;;;9.30;99.50;;;;;;5081427;28;20131;-71
2021/11/01 01:45:13;;;;;;;20.10;3.47;;;9.30;99.50;;;;;;5089455;28;20044;-71
2021/11/01 01:47:41;;;;;;;8.63;2.17;;;9.20;99.50;;;;;;5070271;28;20043;-72
2021/11/01 01:50:12;;;;;;;11.85;2.90;;;9.20;99.90;;;;;;5089682;28;20067;-71
2021/11/01 01:52:39;;;;;;;11.77;2.80;;;9.20;99.90;;;;;;5089181;28;20040;-71
2021/11/01 01:55:08;;;;;;;12.32;2.80;;;9.20;99.80;;;;;;5072092;28;20051;-72
2021/11/01 01:57:36;;;;;;;9.07;3.30;;;9.20;99.80;;;;;;5087766;28;20044;-71
2021/11/01 02:00:12;;;;;;;12.20;2.47;;;9.30;99.50;;;;;;5087709;28;20044;-71
2021/11/01 02:02:40;;;;;;;18.42;2.78;;;9.20;99.60;;;;;;5088450;28;20044;-70
2021/11/01 02:05:08;;;;;;;12.48;2.80;;;9.20;99.50;;;;;;5087648;28;20407;-70
2021/11/01 02:07:40;;;;;;;13.85;4.05;;;9.30;99.30;;;;;;5088413;28;20139;-71
2021/11/01 02:10:18;;;;;;;10.55;2.83;;;9.30;99.10;;;;;;5088013;28;20040;-70
2021/11/01 02:12:50;;;;;;;10.13;2.45;;;9.30;98.90;;;;;;5087653;28;20044;-70
2021/11/01 02:15:35;;;;;;;11.90;3.33;;;9.40;99.00;;;;;;5071906;28;20097;-70
2021/11/01 02:18:02;;;;;;;22.80;3.60;;;9.30;98.70;;;;;;5087525;28;20101;-71
2021/11/01 02:20:36;;;;;;;17.45;2.72;;;9.40;98.80;;;;;;5087668;28;20062;-70
2021/11/01 02:23:14;;;;;;;14.30;3.47;;;9.40;98.80;;;;;;5087553;28;20044;-71
2021/11/01 02:25:48;;;;;;;16.33;3.85;;;9.30;99.00;;;;;;5088885;28;20051;-70
2021/11/01 02:28:18;;;;;;;11.35;3.55;;;9.30;99.00;;;;;;5088362;28;20043;-71
2021/11/01 02:30:45;;;;;;;22.92;3.17;;;9.30;99.30;;;;;;5071395;28;20154;-71
2021/11/01 02:33:13;;;;;;;14.13;3.65;;;9.30;99.10;;;;;;5089584;28;20056;-71
2021/11/01 02:35:42;;;;;;;14.95;3.45;;;9.30;99.20;;;;;;5086923;28;20044;-70
2021/11/01 02:38:12;;;;;;;8.48;2.30;;;9.30;99.50;;;;;;5088823;28;20143;-70
2021/11/01 02:40:39;;;;;;;11.18;2.95;;;9.30;99.60;;;;;;5071546;28;20044;-71
2021/11/01 02:43:06;;;;;;;12.63;3.08;;;9.30;99.90;;;;;;5087549;28;20241;-71
2021/11/01 02:45:34;;;;;;;11.00;3.03;;;9.20;99.90;;;;;;5071461;28;20048;-72
2021/11/01 02:48:01;;;;;;;11.52;2.53;;;9.20;99.90;;;;;;5087352;28;20044;-71
2021/11/01 02:50:28;;;;;;;15.68;3.10;;;9.20;99.90;;;;;;5087570;28;20136;-72
2021/11/01 02:52:55;;;;;;;13.55;3.50;;;9.20;99.90;;;;;;5090489;28;20444;-70
2021/11/01 02:55:22;;;;;;;14.75;2.58;;;9.20;99.90;;;;;;5086825;28;20135;-71
2021/11/01 02:57:49;;;;;;;13.38;3.70;;;9.20;99.90;;;;;;5088816;28;20052;-70
2021/11/01 03:00:17;;;;;;;16.73;2.78;;;9.20;99.90;;;;;;5088911;28;20402;-71
2021/11/01 03:02:45;;;;;;;8.43;2.75;;;9.20;99.90;;;;;;5088818;28;20067;-71
2021/11/01 03:05:13;;;;;;;13.65;2.78;;;9.20;99.90;;;;;;5053704;28;20054;-71
2021/11/01 03:07:40;;;;;;;12.43;2.72;;;9.20;99.90;;;;;;5088125;28;20044;-70
2021/11/01 03:10:08;;;;;;;9.70;2.75;;;9.10;99.90;;;;;;5088940;28;20059;-71
2021/11/01 03:12:39;;;;;;;14.05;2.92;;;9.20;99.90;;;;;;5070875;28;20040;-70
2021/11/01 03:15:10;;;;;;;11.23;2.30;;;9.10;99.90;;;;;;5089567;28;20075;-71
2021/11/01 03:17:41;;;;;;;15.10;2.92;;;9.10;99.90;;;;;;5086671;28;20044;-70
2021/11/01 03:20:17;;;;;;;13.98;2.78;;;9.10;99.90;;;;;;5087427;28;20040;-71
2021/11/01 03:22:52;;;;;;;9.18;3.65;;;9.10;99.90;;;;;;5071832;28;20048;-71
2021/11/01 03:25:34;;;;;;;16.38;4.65;;;9.10;99.70;;;;;;5085149;28;20724;-70
2021/11/01 03:28:02;;;;;;;8.25;2.67;;;9.10;99.60;;;;;;5086041;28;20078;-70
2021/11/01 03:30:30;;;;;;;11.48;2.97;;;9.10;99.40;;;;;;5088446;28;20123;-71
2021/11/01 03:32:58;;;;;;;9.00;2.55;;;9.10;99.40;;;;;;5074425;28;20507;-70
2021/11/01 03:35:25;;;;;;;18.55;2.85;;;9.10;99.50;;;;;;5090291;28;20048;-72
2021/11/01 03:37:54;;;;;;;9.38;2.80;;;9.10;99.50;;;;;;5092225;28;20373;-71
2021/11/01 03:40:22;;;;;;;8.65;2.22;;;9.10;99.30;;;;;;5074251;28;20510;-71
2021/11/01 03:42:49;;;;;;;13.20;2.13;;;9.10;99.20;;;;;;5091457;28;20048;-71
2021/11/01 03:45:17;;;;;;;16.25;2.60;;;9.10;99.30;;;;;;5091134;28;20048;-71
2021/11/01 03:47:47;;;;;;;9.30;2.72;;;9.10;99.30;;;;;;5072426;28;20058;-71
2021/11/01 03:50:31;;;;;;;17.35;3.55;;;9.00;99.30;;;;;;5091174;28;20404;-71
2021/11/01 03:52:58;;;;;;;17.25;2.85;;;9.10;99.40;;;;;;5091599;28;20040;-71
2021/11/01 03:55:29;;;;;;;21.63;4.85;;;9.00;99.10;;;;;;5101362;28;20051;-71
2021/11/01 03:57:58;;;;;;;10.50;1.83;;;9.10;98.80;;;;;;5090976;28;20048;-71
2021/11/01 04:00:27;;;;;;;10.65;2.70;;;9.10;98.80;;;;;;5089817;28;20055;-71
2021/11/01 04:02:55;;;;;;;7.82;2.08;;;9.10;99.00;;;;;;5089913;28;20119;-71
2021/11/01 04:05:22;;;;;;;12.75;2.47;;;9.00;98.60;;;;;;5089727;28;20094;-71
2021/11/01 04:07:49;;;;;;;9.38;2.75;;;9.00;98.40;;;;;;5111369;28;20048;-71
2021/11/01 04:10:16;;;;;;;9.48;3.63;;;9.10;98.60;;;;;;5092326;28;20040;-71
2021/11/01 04:12:43;;;;;;;14.80;2.45;;;9.00;98.30;;;;;;5091384;28;20105;-71
2021/11/01 04:17:41;;;;;;;7.35;2.45;;;9.00;98.30;;;;;;5088506;28;20071;-71
2021/11/01 04:22:50;;;;;;;6.68;2.20;;;9.00;97.80;;;;;;5089690;28;20056;-71
2021/11/01 04:25:18;;;;;;;10.25;3.05;;;9.00;97.90;;;;;;5070587;28;20052;-71
2021/11/01 04:27:46;;;;;;;14.70;2.60;;;9.10;97.80;;;;;;5067146;28;20040;-71
2021/11/01 04:30:13;;;;;;;9.88;2.97;;;9.10;97.30;;;;;;5091512;28;20051;-72
2021/11/01 04:32:42;;;;;;;9.52;2.50;;;9.10;97.40;;;;;;5090196;28;20487;-71
2021/11/01 04:37:39;;;;;;;18.17;4.00;;;9.10;97.40;;;;;;5073086;28;20070;-72
2021/11/01 04:43:02;;;;;;;12.48;3.10;;;9.20;96.70;;;;;;5090938;28;20100;-71
2021/11/01 04:53:48;;;;;;;13.63;3.78;;;9.30;96.20;;;;;;5090744;28;20093;-71
2021/11/01 04:56:21;;;;;;;8.60;2.30;;;9.30;96.70;;;;;;5088676;28;20052;-71
2021/11/01 04:58:49;;;;;;;7.85;2.22;;;9.30;96.60;;;;;;5082502;28;20055;-71
2021/11/01 05:01:20;;;;;;;17.13;4.20;;;9.30;96.50;;;;;;5090376;28;20044;-71
2021/11/01 05:03:52;;;;;;;12.30;2.92;;;9.40;96.10;;;;;;5090977;28;20048;-71
2021/11/01 05:06:23;;;;;;;13.52;3.08;;;9.40;96.80;;;;;;5088498;28;20046;-71
2021/11/01 05:08:58;;;;;;;9.85;2.45;;;9.40;96.40;;;;;;5090653;28;20055;-70
2021/11/01 05:11:32;;;;;;;12.05;2.70;;;9.40;96.50;;;;;;5090876;28;20063;-71
2021/11/01 05:14:00;;;;;;;13.32;2.42;;;9.40;96.20;;;;;;5089937;28;20052;-71
2021/11/01 05:29:57;;;;;;;13.57;3.03;;;9.50;95.80;;;;;;5065632;28;20050;-70
2021/11/01 05:32:27;;;;;;;9.23;2.30;;;9.50;96.00;;;;;;5089368;28;20050;-71
2021/11/01 05:34:54;;;;;;;10.57;3.40;;;9.50;95.80;;;;;;5090015;28;20063;-72
2021/11/01 05:37:21;;;;;;;38.70;23.42;;;9.50;95.80;;;;;;5089332;28;20040;-72
2021/11/01 05:39:49;;;;;;;21.42;12.52;;;9.50;95.90;;;;;;5091452;28;20387;-73
2021/11/01 05:42:17;;;;;;;17.98;3.97;;;9.50;96.10;;;;;;5089876;28;20040;-70
2021/11/01 05:44:44;;;;;;;10.32;2.25;;;9.50;95.60;;;;;;5088232;28;20160;-70
2021/11/01 05:47:11;;;;;;;12.95;2.70;;;9.50;95.80;;;;;;5070076;28;20047;-70
2021/11/01 05:49:39;;;;;;;9.65;3.50;;;9.50;95.70;;;;;;5089087;28;20040;-71
2021/11/01 05:52:13;;;;;;;9.40;3.13;;;9.50;96.00;;;;;;5090154;28;20116;-70
2021/11/01 05:54:40;;;;;;;10.50;2.78;;;9.50;96.10;;;;;;5084205;28;20044;-70
2021/11/01 05:57:24;;;;;;;18.15;3.28;;;9.50;96.20;;;;;;5088238;28;20051;-71
2021/11/01 06:05:05;;;;;;;10.10;2.85;;;9.50;96.20;;;;;;5088528;28;20048;-71
2021/11/01 06:16:13;;;;;;;15.57;3.50;;;9.40;96.20;;;;;;5016698;28;20413;-70
2021/11/01 06:18:41;;;;;;;6.78;2.30;;;9.30;96.40;;;;;;5058913;28;20510;-70
2021/11/01 06:21:14;;;;;;;17.65;2.60;;;9.30;96.60;;;;;;5088144;28;20048;-71
2021/11/01 06:23:45;;;;;;;11.30;2.35;;;9.20;97.00;;;;;;5072994;28;20051;-71
2021/11/01 06:26:13;;;;;;;10.75;2.72;;;9.20;96.60;;;;;;5071261;28;20054;-71
2021/11/01 06:28:43;;;;;;;19.63;3.15;;;9.20;96.40;;;;;;5082954;28;20075;-71
2021/11/01 06:31:14;;;;;;;12.73;2.17;;;9.10;96.60;;;;;;5071306;28;20053;-71
2021/11/01 06:33:56;;;;;;;19.13;7.43;;;9.10;96.60;;;;;;5071274;28;20077;-72
2021/11/01 06:50:55;;;;;;;18.33;5.65;;;8.90;97.50;;;;;;5080948;28;20044;-72
2021/11/01 06:56:43;;;;;;;13.18;3.33;;;8.90;98.00;;;;;;5072178;28;20052;-69
2021/11/01 07:16:08;;;;;;;15.75;8.15;;;8.70;99.00;;;;;;5086116;28;20040;-75
2021/11/01 07:18:52;;;;;;;11.50;3.95;;;8.70;99.00;;;;;;5090428;28;20048;-74
2021/11/01 07:21:38;;;;;;;17.52;5.75;;;8.70;98.80;;;;;;5090779;28;20496;-67
2021/11/01 08:30:13;;;;;;;14.90;3.13;;;9.20;98.80;;;;;;5082486;28;20059;-67
2021/11/01 08:46:15;;;;;;;13.95;4.28;;;9.40;98.60;;;;;;5087902;28;20048;-70
2021/11/01 08:52:07;;;;;;;15.02;3.65;;;9.50;98.60;;;;;;5072771;28;20042;-70
2021/11/01 09:03:22;;;;;;;10.85;3.08;;;9.60;97.50;;;;;;5078606;28;20051;-67
2021/11/01 09:05:33;;;;;;;13.55;4.38;;;9.70;96.90;;;;;;5069848;28;20043;-67
2021/11/01 09:09:54;;;;;;;12.43;2.88;;;9.70;96.30;;;;;;5087937;28;20062;-66
2021/11/01 09:18:50;;;;;;;10.45;2.47;;;9.80;96.00;;;;;;5089665;28;20044;-68
2021/11/01 09:21:43;;;;;;;14.73;2.90;;;9.80;96.60;;;;;;5088711;28;20966;-71
2021/11/01 09:24:34;;;;;;;14.93;2.75;;;9.90;96.20;;;;;;5087818;28;20036;-71
2021/11/01 09:27:09;;;;;;;10.57;3.45;;;9.90;95.90;;;;;;5089336;28;20059;-70
2021/11/01 09:43:07;;;;;;;9.45;2.80;;;10.20;95.90;;;;;;5085519;28;20052;-69
2021/11/01 09:45:36;;;;;;;10.65;2.63;;;10.20;95.40;;;;;;5072875;28;20079;-67
2021/11/01 09:48:04;;;;;;;9.57;2.30;;;10.20;96.00;;;;;;5088375;28;20384;-69
2021/11/01 09:50:31;;;;;;;14.18;3.10;;;10.20;95.50;;;;;;5071653;28;20052;-68
2021/11/01 09:53:01;;;;;;;10.82;2.30;;;10.30;96.10;;;;;;5089183;28;20764;-69
2021/11/01 10:01:12;;;;;;;10.43;2.30;;;10.40;95.10;;;;;;5069129;28;20093;-68
2021/11/01 10:03:43;;;;;;;12.63;2.63;;;10.50;95.70;;;;;;5085606;28;20054;-69
2021/11/01 10:06:18;;;;;;;12.10;2.83;;;10.50;94.00;;;;;;5071442;28;20052;-68
2021/11/01 10:09:02;;;;;;;19.83;2.67;;;10.60;94.00;;;;;;5086104;28;20044;-69
2021/11/01 10:11:31;;;;;;;12.57;2.92;;;10.70;93.80;;;;;;5086770;28;20047;-67
2021/11/01 10:14:00;;;;;;;15.40;3.07;;;10.70;93.80;;;;;;5088482;28;20048;-68
2021/11/01 10:19:35;;;;;;;16.52;3.38;;;10.80;92.90;;;;;;5088273;28;20054;-67
2021/11/01 10:22:07;;;;;;;11.00;3.65;;;10.90;93.30;;;;;;5070405;28;20119;-69
2021/11/01 10:24:39;;;;;;;10.68;2.92;;;10.90;93.40;;;;;;5070543;28;20104;-76
2021/11/01 10:27:12;;;;;;;8.02;2.28;;;10.90;92.50;;;;;;5087425;28;20040;-72
2021/11/01 10:29:51;;;;;;;9.40;3.42;;;10.90;93.50;;;;;;5087013;28;20099;-72
2021/11/01 10:32:37;;;;;;;14.05;7.93;;;11.00;90.80;;;;;;5089088;28;20043;-67
2021/11/01 10:35:22;;;;;;;12.82;3.08;;;11.10;90.60;;;;;;5088865;28;20571;-69
2021/11/01 10:38:04;;;;;;;8.88;2.53;;;11.10;90.00;;;;;;5088460;28;20431;-68
2021/11/01 10:40:34;;;;;;;10.25;2.28;;;11.10;90.60;;;;;;5088960;28;20093;-67
2021/11/01 10:43:19;;;;;;;7.10;1.92;;;11.10;89.40;;;;;;5090209;28;20058;-67
2021/11/01 10:58:03;;;;;;;10.05;2.53;;;11.20;90.80;;;;;;5090784;28;20059;-67
2021/11/01 11:14:26;;;;;;;21.30;7.47;;;11.50;89.60;;;;;;5092423;28;20048;-72
2021/11/01 11:48:39;;;;;;;8.75;2.40;;;12.40;81.40;;;;;;5091976;28;20169;-72
2021/11/01 11:51:09;;;;;;;8.93;2.70;;;12.40;84.30;;;;;;5102252;28;20046;-70
2021/11/01 11:53:53;;;;;;;12.00;2.15;;;12.30;81.40;;;;;;5090768;28;20107;-70
2021/11/01 11:56:27;;;;;;;7.05;2.00;;;12.20;82.80;;;;;;5091820;28;20040;-72
2021/11/01 11:58:57;;;;;;;8.07;2.58;;;12.10;83.20;;;;;;5074200;28;20067;-72
2021/11/01 12:01:36;;;;;;;7.22;3.55;;;12.20;83.50;;;;;;5057755;28;20079;-69
2021/11/01 12:04:05;;;;;;;9.63;2.83;;;12.20;84.40;;;;;;5092518;28;20055;-70
2021/11/01 12:07:02;;;;;;;6.18;2.03;;;12.20;81.90;;;;;;5090527;28;20059;-71
2021/11/01 12:09:42;;;;;;;7.75;2.17;;;12.20;82.20;;;;;;5084346;28;20131;-69
2021/11/01 12:17:31;;;;;;;8.63;2.15;;;12.20;81.40;;;;;;5089684;28;20111;-69
2021/11/01 12:20:00;;;;;;;9.93;2.17;;;12.20;84.50;;;;;;5078669;28;20048;-69
2021/11/01 12:22:30;;;;;;;8.65;3.00;;;12.20;83.80;;;;;;5090148;28;20376;-69
2021/11/01 12:24:58;;;;;;;7.30;1.70;;;12.20;84.70;;;;;;5090078;28;20048;-69
2021/11/01 12:27:26;;;;;;;8.10;2.30;;;12.30;80.20;;;;;;5091786;28;20048;-69
2021/11/01 12:29:56;;;;;;;9.13;2.17;;;12.30;80.70;;;;;;5091700;28;20273;-69
2021/11/01 12:32:23;;;;;;;;;;;12.30;81.40;;;;;;5090927;28;20048;-69
2021/11/01 12:37:31;;;;;;;6.90;1.80;;;12.40;80.60;;;;;;5074463;28;20067;-70
2021/11/01 12:40:03;;;;;;;10.10;2.22;;;12.40;82.20;;;;;;5091166;28;20044;-69
2021/11/01 12:43:18;;;;;;;22.45;13.50;;;12.40;79.10;;;;;;5091607;28;20048;-72
2021/11/01 12:59:54;;;;;;;7.13;2.00;;;12.80;79.00;;;;;;5089891;28;20062;-70
2021/11/01 13:02:25;;;;;;;6.97;1.83;;;12.80;77.20;;;;;;5079067;28;20510;-70
2021/11/01 13:04:52;;;;;;;5.80;1.88;;;12.70;76.10;;;;;;5089965;28;20076;-70
2021/11/01 13:13:08;;;;;;;6.00;2.47;;;12.70;79.00;;;;;;5092120;28;20043;-70
2021/11/01 13:18:25;;;;;;;4.55;1.90;;;12.70;75.90;;;;;;5088735;28;20036;-70
2021/11/01 13:20:57;;;;;;;4.70;1.80;;;12.70;77.20;;;;;;5089512;28;20070;-69
2021/11/01 13:23:27;;;;;;;7.18;2.00;;;12.80;77.00;;;;;;5074137;28;20399;-70
2021/11/01 13:26:18;;;;;;;5.95;1.85;;;12.80;74.20;;;;;;5087026;28;20126;-70
2021/11/01 13:29:02;;;;;;;5.32;1.90;;;12.90;77.10;;;;;;5088969;28;20059;-70
2021/11/01 13:36:51;;;;;;;7.45;1.77;;;13.20;73.50;;;;;;5071803;28;20048;-69
2021/11/01 13:39:28;;;;;;;9.63;1.60;;;13.30;73.20;;;;;;5089335;28;20052;-70
2021/11/01 13:41:55;;;;;;;4.80;2.35;;;13.40;72.80;;;;;;5088865;28;20338;-70
2021/11/01 13:44:24;;;;;;;8.13;1.85;;;13.50;74.70;;;;;;5089944;28;20484;-70
2021/11/01 13:46:56;;;;;;;6.40;1.77;;;13.50;76.20;;;;;;5088079;28;20146;-70
2021/11/01 13:49:31;;;;;;;7.75;1.98;;;13.60;78.40;;;;;;5089833;28;20052;-69
2021/11/01 13:55:04;;;;;;;3.03;1.50;;;13.60;78.30;;;;;;5090683;28;20104;-70
2021/11/01 13:57:39;;;;;;;5.22;2.35;;;13.50;81.40;;;;;;5086932;28;20506;-70
2021/11/01 14:13:55;;;;;;;4.85;1.60;;;12.80;83.50;;;;;;5090315;28;20048;-71
2021/11/01 14:27:25;;;;;;;7.65;2.00;;;12.80;84.50;;;;;;5087122;28;20059;-70
2021/11/01 14:33:03;;;;;;;7.50;1.85;;;12.80;83.70;;;;;;5088998;28;20487;-71
2021/11/01 15:16:58;;;;;;;5.95;2.25;;;12.50;80.40;;;;;;5088732;28;20051;-69
2021/11/01 15:38:47;;;;;;;3.70;1.20;;;12.00;76.30;;;;;;5097257;28;20047;-72
2021/11/01 16:17:25;;;;;;;15.27;2.03;;;11.20;85.30;;;;;;5088698;28;20498;-70
2021/11/01 16:19:54;;;;;;;6.47;2.08;;;11.10;84.40;;;;;;5073962;28;20044;-70
2021/11/01 16:22:23;;;;;;;5.10;1.38;;;11.00;86.00;;;;;;5087768;28;20048;-70
2021/11/01 16:24:50;;;;;;;6.07;1.58;;;11.00;86.60;;;;;;5090326;28;20123;-71
2021/11/01 16:27:19;;;;;;;5.00;2.33;;;10.90;86.10;;;;;;5088599;28;20054;-72
2021/11/01 16:29:50;;;;;;;10.02;1.63;;;10.90;88.80;;;;;;5087882;28;20119;-69
2021/11/01 16:32:37;;;;;;;4.57;1.70;;;10.80;86.60;;;;;;5089321;28;20048;-73
2021/11/01 16:35:08;;;;;;;3.75;1.50;;;10.70;87.60;;;;;;5055682;28;20059;-71
2021/11/01 16:37:50;;;;;;;4.85;1.75;;;10.60;88.20;;;;;;5086771;28;20405;-71
2021/11/01 16:40:17;;;;;;;4.47;1.17;;;10.50;90.30;;;;;;5067463;28;20088;-71
2021/11/01 16:42:46;;;;;;;3.97;1.80;;;10.40;91.00;;;;;;5087469;28;20530;-71
2021/11/01 16:45:38;;;;;;;2.88;1.35;;;10.40;91.60;;;;;;5078712;28;20131;-72
2021/11/01 16:48:07;;;;;;;2.33;1.20;;;10.30;93.20;;;;;;5073952;28;20575;-72
2021/11/01 16:50:44;;;;;;;2.75;1.80;;;10.20;93.80;;;;;;5082347;28;20054;-72
2021/11/01 16:53:13;;;;;;;9.07;2.00;;;10.10;92.80;;;;;;5087335;28;20090;-72
2021/11/01 16:55:47;;;;;;;4.30;1.48;;;10.00;92.80;;;;;;5087638;28;20348;-72
2021/11/01 16:58:19;;;;;;;7.90;2.15;;;9.90;93.30;;;;;;5089636;28;20044;-73
2021/11/01 17:01:02;;;;;;;3.47;1.73;;;9.90;94.00;;;;;;5072565;28;20412;-72
2021/11/01 17:03:41;;;;;;;10.07;3.20;;;9.80;94.20;;;;;;5089217;28;20371;-74
2021/11/01 17:09:32;;;;;;;4.60;2.25;;;9.70;94.40;;;;;;5088302;28;20059;-69
2021/11/01 17:23:22;;;;;;;5.95;2.03;;;9.50;95.20;;;;;;5084654;28;20071;-77
2021/11/01 17:36:40;;;;;;;7.35;1.85;;;9.30;96.40;;;;;;5073428;28;20088;-75
2021/11/01 18:51:55;;;;;;;32.50;21.17;;;8.10;99.90;;;;;;5083766;28;20381;-68
2021/11/01 18:54:27;;;;;;;17.65;11.15;;;8.10;99.90;;;;;;5075464;28;20070;-71
2021/11/01 18:56:58;;;;;;;8.40;5.50;;;8.00;99.90;;;;;;5085978;28;20040;-70
2021/11/01 18:59:26;;;;;;;8.20;4.28;;;8.00;99.90;;;;;;5069570;28;20443;-68
2021/11/01 19:02:20;;;;;;;6.82;3.05;;;8.00;99.90;;;;;;5085609;28;20135;-69
2021/11/01 20:06:39;;;;;;;9.55;3.92;;;7.30;99.90;;;;;;5089855;28;20498;-67
2021/11/01 20:09:34;;;;;;;10.75;4.68;;;7.20;99.90;;;;;;5089760;28;20231;-67
2021/11/01 21:26:58;;;;;;;11.15;5.32;;;6.40;99.90;;;;;;5086008;28;20058;-70
2021/11/01 21:29:28;;;;;;;6.88;4.25;;;6.40;99.90;;;;;;5086485;28;20097;-67
2021/11/01 21:31:56;;;;;;;8.95;3.75;;;6.40;99.90;;;;;;5085421;28;20063;-71
2021/11/01 21:34:44;;;;;;;8.57;4.18;;;6.40;99.90;;;;;;5087773;28;20476;-68
2021/11/01 21:37:11;;;;;;;8.45;4.28;;;6.30;99.90;;;;;;5087933;28;20048;-69
2021/11/01 21:39:38;;;;;;;7.13;3.92;;;6.30;99.90;;;;;;5086615;28;20086;-69
2021/11/01 21:42:05;;;;;;;6.25;3.50;;;6.30;99.90;;;;;;5067599;28;20044;-69
2021/11/01 21:44:36;;;;;;;9.00;4.07;;;6.30;99.90;;;;;;5072431;28;20052;-72
2021/11/01 21:47:03;;;;;;;7.43;3.72;;;6.30;99.90;;;;;;5086473;28;20048;-69
2021/11/01 21:49:30;;;;;;;6.70;3.92;;;6.30;99.90;;;;;;5089950;28;20051;-69
2021/11/01 21:51:57;;;;;;;6.30;3.72;;;6.30;99.90;;;;;;5087902;28;20047;-69
2021/11/01 21:54:47;;;;;;;8.82;4.43;;;6.30;99.90;;;;;;5087261;28;20081;-69
2021/11/01 21:57:24;;;;;;;9.55;3.35;;;6.30;99.90;;;;;;5073888;28;20051;-68
2021/11/01 22:16:49;;;;;;;10.43;4.95;;;6.20;99.90;;;;;;5072344;28;20404;-68
2021/11/01 22:57:29;;;;;;;9.18;3.20;;;6.20;99.90;;;;;;5087424;28;20393;-68
2021/11/01 22:59:57;;;;;;;9.23;4.35;;;6.20;99.90;;;;;;5090950;28;20040;-68
2021/11/01 23:02:23;;;;;;;8.85;3.47;;;6.20;99.90;;;;;;5090461;28;20056;-68
2021/11/01 23:04:55;;;;;;;9.40;3.40;;;6.20;99.90;;;;;;5088811;28;20051;-68
2021/11/01 23:32:11;;;;;;;11.77;5.68;;;6.10;99.90;;;;;;5089968;28;20117;-69
2021/11/01 23:34:38;;;;;;;8.65;5.60;;;6.10;99.90;;;;;;5088594;28;20128;-68
2021/11/01 23:37:05;;;;;;;9.45;5.03;;;6.00;99.90;;;;;;5090583;28;20413;-67
2021/11/01 23:39:33;;;;;;;9.38;5.32;;;6.00;99.90;;;;;;5100949;28;20448;-68
2021/11/01 23:42:00;;;;;;;7.97;4.95;;;6.00;99.90;;;;;;5089733;28;20665;-68
2021/11/01 23:44:28;;;;;;;8.45;4.80;;;6.00;99.90;;;;;;5087742;28;20055;-68
2021/11/01 23:46:55;;;;;;;11.07;4.32;;;5.90;99.90;;;;;;5087758;28;20045;-67
2021/11/01 23:49:22;;;;;;;10.30;4.30;;;5.90;99.90;;;;;;5090461;28;20055;-67
2021/11/01 23:51:59;;;;;;;7.78;4.53;;;5.90;99.90;;;;;;5091513;28;20119;-67
2021/11/01 23:54:38;;;;;;;6.72;3.97;;;5.90;99.90;;;;;;5090875;28;20040;-68
2021/11/01 23:57:06;;;;;;;8.77;4.70;;;5.90;99.90;;;;;;5092705;28;20055;-68
2021/11/01 23:59:34;;;;;;;11.27;6.03;;;5.90;99.90;;;;;;5074096;28;20048;-68
